Gotherington, United Kingdom
Current Conditions -  °F | °C
As of 7:20 PM on Monday 24 Nov 2014 (Local Time) from EGBJ Reporting Station
Clear Clear  
Wind Chill: 36°   Ceiling: Unl
Heat Index: 36°   Visibility: 6mi
Dew Point: 34°   Wind: 0mph
Humidity: 93%   Direction: NA
Pressure: 30.33"   Gusts: NA
Location:  51.96°N, 2.05°W
Report Text: EGBJ 241920Z 00000KT CAVOK 02/01 Q1027
Loading
Personal Weather Stations






























Interactive Weather Map New forecast layout! Learn more

10-Day Weather Forecast

Advertisements
Track Severe Weather on mobile